Terminal Aerodrome Forecast
Issued by NWS Upton, NY

Home | Current Version | Previous Version | Text Only | Print | Product List | Glossary On
Versions: 1 2 3 4 5 6 7 8 9 10 11 12 13 14 15 16 17 18 19 20 21 22 23 24 25 26 27 28
352
FTUS41 KOKX 221531 AAB
TAFISP
TAF AMD
KISP 221531Z 2216/2312 22010KT P6SM SCT010 BKN250
     FM221800 21012G18KT P6SM SCT025 BKN250
     FM222000 20016G24KT P6SM SCT040 BKN250
     FM230000 21017G25KT P6SM SCT007 BKN015 BKN250 PROB30 2304/2308
      5SM TSRA BKN025 BKN050CB
     FM230800 23010KT P6SM VCSH SCT015 BKN025=

USA.gov is the U.S. government's official web portal to all federal, state and local government web resources and services.